sensor_id;sensor_type;location;lat;lon;timestamp;P1;durP1;ratioP1;P2;durP2;ratioP2
9884;SDS011;4981;50.966;4.842;2023-12-22T00:01:00;18.17;;;4.43;;
9884;SDS011;4981;50.966;4.842;2023-12-22T00:03:27;25.90;;;5.27;;
9884;SDS011;4981;50.966;4.842;2023-12-22T00:05:55;18.23;;;4.77;;
9884;SDS011;4981;50.966;4.842;2023-12-22T00:08:22;19.07;;;4.57;;
9884;SDS011;4981;50.966;4.842;2023-12-22T00:10:49;22.50;;;4.90;;
9884;SDS011;4981;50.966;4.842;2023-12-22T00:13:18;17.57;;;4.10;;
9884;SDS011;4981;50.966;4.842;2023-12-22T00:15:45;18.33;;;4.70;;
9884;SDS011;4981;50.966;4.842;2023-12-22T00:18:12;17.67;;;3.77;;
9884;SDS011;4981;50.966;4.842;2023-12-22T00:20:40;19.33;;;5.27;;
9884;SDS011;4981;50.966;4.842;2023-12-22T00:23:07;19.83;;;4.40;;
9884;SDS011;4981;50.966;4.842;2023-12-22T00:25:34;16.13;;;4.93;;
9884;SDS011;4981;50.966;4.842;2023-12-22T00:28:01;20.90;;;4.33;;
9884;SDS011;4981;50.966;4.842;2023-12-22T00:30:30;19.00;;;4.63;;
9884;SDS011;4981;50.966;4.842;2023-12-22T00:32:57;21.17;;;4.77;;
9884;SDS011;4981;50.966;4.842;2023-12-22T00:35:25;17.77;;;4.43;;
9884;SDS011;4981;50.966;4.842;2023-12-22T00:37:52;15.20;;;4.30;;
9884;SDS011;4981;50.966;4.842;2023-12-22T00:40:19;19.33;;;4.43;;
9884;SDS011;4981;50.966;4.842;2023-12-22T00:42:46;21.67;;;3.60;;
9884;SDS011;4981;50.966;4.842;2023-12-22T00:45:13;17.53;;;4.50;;
9884;SDS011;4981;50.966;4.842;2023-12-22T00:47:42;13.70;;;3.37;;
9884;SDS011;4981;50.966;4.842;2023-12-22T00:50:09;14.83;;;2.97;;
9884;SDS011;4981;50.966;4.842;2023-12-22T00:52:37;12.10;;;3.33;;
9884;SDS011;4981;50.966;4.842;2023-12-22T00:55:04;13.47;;;2.97;;
9884;SDS011;4981;50.966;4.842;2023-12-22T00:57:31;16.87;;;3.37;;
9884;SDS011;4981;50.966;4.842;2023-12-22T00:59:59;11.43;;;3.13;;
9884;SDS011;4981;50.966;4.842;2023-12-22T01:02:26;15.23;;;2.90;;
9884;SDS011;4981;50.966;4.842;2023-12-22T01:04:55;13.03;;;3.30;;
9884;SDS011;4981;50.966;4.842;2023-12-22T01:07:22;12.43;;;2.50;;
9884;SDS011;4981;50.966;4.842;2023-12-22T01:09:50;12.70;;;3.67;;
9884;SDS011;4981;50.966;4.842;2023-12-22T01:12:19;14.97;;;3.13;;
9884;SDS011;4981;50.966;4.842;2023-12-22T01:14:46;15.13;;;3.00;;
9884;SDS011;4981;50.966;4.842;2023-12-22T01:17:16;13.60;;;2.93;;
9884;SDS011;4981;50.966;4.842;2023-12-22T01:19:44;18.50;;;4.23;;
9884;SDS011;4981;50.966;4.842;2023-12-22T01:22:12;13.30;;;3.40;;
9884;SDS011;4981;50.966;4.842;2023-12-22T01:24:40;22.67;;;4.90;;
9884;SDS011;4981;50.966;4.842;2023-12-22T01:27:08;14.90;;;3.73;;
9884;SDS011;4981;50.966;4.842;2023-12-22T01:29:35;21.80;;;4.37;;
9884;SDS011;4981;50.966;4.842;2023-12-22T01:32:03;21.00;;;4.77;;
9884;SDS011;4981;50.966;4.842;2023-12-22T01:34:30;18.27;;;5.13;;
9884;SDS011;4981;50.966;4.842;2023-12-22T01:36:57;17.73;;;3.43;;
9884;SDS011;4981;50.966;4.842;2023-12-22T01:39:26;23.10;;;4.50;;
9884;SDS011;4981;50.966;4.842;2023-12-22T01:41:53;20.23;;;3.83;;
9884;SDS011;4981;50.966;4.842;2023-12-22T01:44:20;19.37;;;3.90;;
9884;SDS011;4981;50.966;4.842;2023-12-22T01:46:48;15.43;;;4.20;;
9884;SDS011;4981;50.966;4.842;2023-12-22T01:49:16;19.93;;;3.10;;
9884;SDS011;4981;50.966;4.842;2023-12-22T01:51:43;23.07;;;4.03;;
9884;SDS011;4981;50.966;4.842;2023-12-22T01:54:11;24.83;;;3.97;;
9884;SDS011;4981;50.966;4.842;2023-12-22T01:56:41;26.63;;;5.00;;
9884;SDS011;4981;50.966;4.842;2023-12-22T01:59:08;20.07;;;4.03;;
9884;SDS011;4981;50.966;4.842;2023-12-22T02:01:36;21.60;;;3.70;;
9884;SDS011;4981;50.966;4.842;2023-12-22T02:04:04;20.13;;;4.20;;
9884;SDS011;4981;50.966;4.842;2023-12-22T02:06:31;26.27;;;4.80;;
9884;SDS011;4981;50.966;4.842;2023-12-22T02:09:00;21.33;;;4.60;;
9884;SDS011;4981;50.966;4.842;2023-12-22T02:11:28;22.87;;;5.07;;
9884;SDS011;4981;50.966;4.842;2023-12-22T02:13:56;24.47;;;4.43;;
9884;SDS011;4981;50.966;4.842;2023-12-22T02:16:26;22.20;;;5.27;;
9884;SDS011;4981;50.966;4.842;2023-12-22T02:18:56;22.07;;;4.50;;
9884;SDS011;4981;50.966;4.842;2023-12-22T02:21:26;27.00;;;5.23;;
9884;SDS011;4981;50.966;4.842;2023-12-22T02:23:54;22.37;;;4.80;;
9884;SDS011;4981;50.966;4.842;2023-12-22T02:26:25;21.90;;;4.93;;
9884;SDS011;4981;50.966;4.842;2023-12-22T02:28:54;26.83;;;5.30;;
9884;SDS011;4981;50.966;4.842;2023-12-22T02:31:27;25.93;;;5.23;;
9884;SDS011;4981;50.966;4.842;2023-12-22T02:33:55;25.73;;;5.57;;
9884;SDS011;4981;50.966;4.842;2023-12-22T02:36:23;25.47;;;4.83;;
9884;SDS011;4981;50.966;4.842;2023-12-22T02:38:52;20.50;;;4.77;;
9884;SDS011;4981;50.966;4.842;2023-12-22T02:41:22;23.30;;;4.20;;
9884;SDS011;4981;50.966;4.842;2023-12-22T02:43:49;18.30;;;4.20;;
9884;SDS011;4981;50.966;4.842;2023-12-22T02:46:17;23.40;;;5.07;;
9884;SDS011;4981;50.966;4.842;2023-12-22T02:48:44;21.47;;;6.23;;
9884;SDS011;4981;50.966;4.842;2023-12-22T02:51:11;19.10;;;3.70;;
9884;SDS011;4981;50.966;4.842;2023-12-22T02:53:38;20.40;;;3.83;;
9884;SDS011;4981;50.966;4.842;2023-12-22T02:56:06;16.80;;;4.27;;
9884;SDS011;4981;50.966;4.842;2023-12-22T02:58:34;16.13;;;3.87;;
9884;SDS011;4981;50.966;4.842;2023-12-22T03:01:02;14.63;;;3.67;;
9884;SDS011;4981;50.966;4.842;2023-12-22T03:03:29;18.47;;;3.37;;
9884;SDS011;4981;50.966;4.842;2023-12-22T03:05:56;13.10;;;3.23;;
9884;SDS011;4981;50.966;4.842;2023-12-22T03:08:23;14.67;;;3.20;;
9884;SDS011;4981;50.966;4.842;2023-12-22T03:10:50;14.53;;;2.83;;
9884;SDS011;4981;50.966;4.842;2023-12-22T03:13:18;14.43;;;4.03;;
9884;SDS011;4981;50.966;4.842;2023-12-22T03:15:46;16.40;;;4.27;;
9884;SDS011;4981;50.966;4.842;2023-12-22T03:18:13;10.77;;;3.53;;
9884;SDS011;4981;50.966;4.842;2023-12-22T03:20:41;15.20;;;3.60;;
9884;SDS011;4981;50.966;4.842;2023-12-22T03:23:08;14.33;;;3.10;;
9884;SDS011;4981;50.966;4.842;2023-12-22T03:25:35;16.13;;;3.33;;
9884;SDS011;4981;50.966;4.842;2023-12-22T03:28:03;15.00;;;2.77;;
9884;SDS011;4981;50.966;4.842;2023-12-22T03:30:30;10.00;;;2.47;;
9884;SDS011;4981;50.966;4.842;2023-12-22T03:32:59;12.93;;;3.00;;
9884;SDS011;4981;50.966;4.842;2023-12-22T03:35:26;15.20;;;2.70;;
9884;SDS011;4981;50.966;4.842;2023-12-22T03:37:53;12.43;;;2.63;;
9884;SDS011;4981;50.966;4.842;2023-12-22T03:40:20;10.73;;;3.37;;
9884;SDS011;4981;50.966;4.842;2023-12-22T03:42:48;11.47;;;2.43;;
9884;SDS011;4981;50.966;4.842;2023-12-22T03:45:15;12.80;;;2.70;;
9884;SDS011;4981;50.966;4.842;2023-12-22T03:47:42;11.57;;;2.77;;
9884;SDS011;4981;50.966;4.842;2023-12-22T03:50:10;12.10;;;2.53;;
9884;SDS011;4981;50.966;4.842;2023-12-22T03:52:37;18.83;;;3.67;;
9884;SDS011;4981;50.966;4.842;2023-12-22T03:55:05;16.80;;;3.20;;
9884;SDS011;4981;50.966;4.842;2023-12-22T03:57:32;14.43;;;2.83;;
9884;SDS011;4981;50.966;4.842;2023-12-22T03:59:59;16.10;;;3.17;;
9884;SDS011;4981;50.966;4.842;2023-12-22T04:02:26;17.80;;;4.63;;
9884;SDS011;4981;50.966;4.842;2023-12-22T04:04:54;18.40;;;4.40;;
9884;SDS011;4981;50.966;4.842;2023-12-22T04:07:22;20.80;;;3.60;;
9884;SDS011;4981;50.966;4.842;2023-12-22T04:09:49;19.80;;;4.43;;
9884;SDS011;4981;50.966;4.842;2023-12-22T04:12:17;14.73;;;3.60;;
9884;SDS011;4981;50.966;4.842;2023-12-22T04:14:44;20.83;;;4.63;;
9884;SDS011;4981;50.966;4.842;2023-12-22T04:17:11;23.33;;;4.73;;
9884;SDS011;4981;50.966;4.842;2023-12-22T04:19:38;27.27;;;5.17;;
9884;SDS011;4981;50.966;4.842;2023-12-22T04:22:06;19.43;;;4.47;;
9884;SDS011;4981;50.966;4.842;2023-12-22T04:24:34;18.80;;;4.80;;
9884;SDS011;4981;50.966;4.842;2023-12-22T04:27:01;28.33;;;5.23;;
9884;SDS011;4981;50.966;4.842;2023-12-22T04:29:29;24.90;;;5.50;;
9884;SDS011;4981;50.966;4.842;2023-12-22T04:31:56;22.80;;;3.83;;
9884;SDS011;4981;50.966;4.842;2023-12-22T04:34:24;19.17;;;3.83;;
9884;SDS011;4981;50.966;4.842;2023-12-22T04:36:51;19.93;;;4.20;;
9884;SDS011;4981;50.966;4.842;2023-12-22T04:39:18;18.53;;;3.70;;
9884;SDS011;4981;50.966;4.842;2023-12-22T04:41:47;18.93;;;5.20;;
9884;SDS011;4981;50.966;4.842;2023-12-22T04:44:14;19.23;;;4.63;;
9884;SDS011;4981;50.966;4.842;2023-12-22T04:46:41;22.13;;;4.20;;
9884;SDS011;4981;50.966;4.842;2023-12-22T04:49:08;20.30;;;4.00;;
9884;SDS011;4981;50.966;4.842;2023-12-22T04:51:36;26.10;;;5.23;;
9884;SDS011;4981;50.966;4.842;2023-12-22T04:54:03;19.53;;;4.30;;
9884;SDS011;4981;50.966;4.842;2023-12-22T04:56:30;23.33;;;5.60;;
9884;SDS011;4981;50.966;4.842;2023-12-22T04:58:59;23.57;;;4.40;;
9884;SDS011;4981;50.966;4.842;2023-12-22T05:01:28;19.60;;;4.80;;
9884;SDS011;4981;50.966;4.842;2023-12-22T05:03:55;26.67;;;4.13;;
9884;SDS011;4981;50.966;4.842;2023-12-22T05:06:23;23.60;;;4.67;;
9884;SDS011;4981;50.966;4.842;2023-12-22T05:08:50;20.67;;;4.97;;
9884;SDS011;4981;50.966;4.842;2023-12-22T05:11:17;26.13;;;5.73;;
9884;SDS011;4981;50.966;4.842;2023-12-22T05:13:44;25.50;;;5.60;;
9884;SDS011;4981;50.966;4.842;2023-12-22T05:16:13;26.90;;;5.47;;
9884;SDS011;4981;50.966;4.842;2023-12-22T05:18:40;30.83;;;6.00;;
9884;SDS011;4981;50.966;4.842;2023-12-22T05:21:07;27.33;;;6.30;;
9884;SDS011;4981;50.966;4.842;2023-12-22T05:23:35;29.50;;;5.73;;
9884;SDS011;4981;50.966;4.842;2023-12-22T05:26:02;26.73;;;6.13;;
9884;SDS011;4981;50.966;4.842;2023-12-22T05:28:29;29.60;;;5.70;;
9884;SDS011;4981;50.966;4.842;2023-12-22T05:30:56;30.07;;;5.33;;
9884;SDS011;4981;50.966;4.842;2023-12-22T05:33:25;24.37;;;4.47;;
9884;SDS011;4981;50.966;4.842;2023-12-22T05:35:52;28.40;;;5.93;;
9884;SDS011;4981;50.966;4.842;2023-12-22T05:38:20;33.43;;;6.70;;
9884;SDS011;4981;50.966;4.842;2023-12-22T05:40:50;28.73;;;6.73;;
9884;SDS011;4981;50.966;4.842;2023-12-22T05:43:17;27.60;;;5.87;;
9884;SDS011;4981;50.966;4.842;2023-12-22T05:45:44;27.53;;;5.23;;
9884;SDS011;4981;50.966;4.842;2023-12-22T05:48:12;31.63;;;5.90;;
9884;SDS011;4981;50.966;4.842;2023-12-22T05:50:40;30.07;;;6.07;;
9884;SDS011;4981;50.966;4.842;2023-12-22T05:53:07;28.27;;;6.63;;
9884;SDS011;4981;50.966;4.842;2023-12-22T05:55:36;27.23;;;5.80;;
9884;SDS011;4981;50.966;4.842;2023-12-22T05:58:04;21.63;;;5.47;;
9884;SDS011;4981;50.966;4.842;2023-12-22T06:00:31;32.20;;;5.93;;
9884;SDS011;4981;50.966;4.842;2023-12-22T06:02:58;27.63;;;5.57;;
9884;SDS011;4981;50.966;4.842;2023-12-22T06:05:27;23.80;;;6.13;;
9884;SDS011;4981;50.966;4.842;2023-12-22T06:07:56;32.50;;;6.07;;
9884;SDS011;4981;50.966;4.842;2023-12-22T06:10:24;29.07;;;6.00;;
9884;SDS011;4981;50.966;4.842;2023-12-22T06:12:51;27.80;;;5.83;;
9884;SDS011;4981;50.966;4.842;2023-12-22T06:15:18;34.80;;;5.70;;
9884;SDS011;4981;50.966;4.842;2023-12-22T06:17:46;24.37;;;5.77;;
9884;SDS011;4981;50.966;4.842;2023-12-22T06:20:13;29.53;;;6.17;;
9884;SDS011;4981;50.966;4.842;2023-12-22T06:22:40;30.53;;;5.73;;
9884;SDS011;4981;50.966;4.842;2023-12-22T06:25:09;33.17;;;6.47;;
9884;SDS011;4981;50.966;4.842;2023-12-22T06:27:36;32.90;;;6.47;;
9884;SDS011;4981;50.966;4.842;2023-12-22T06:30:04;31.97;;;6.70;;
9884;SDS011;4981;50.966;4.842;2023-12-22T06:32:31;29.57;;;5.03;;
9884;SDS011;4981;50.966;4.842;2023-12-22T06:34:59;33.83;;;6.30;;
9884;SDS011;4981;50.966;4.842;2023-12-22T06:37:26;28.93;;;6.63;;
9884;SDS011;4981;50.966;4.842;2023-12-22T06:39:53;33.17;;;6.03;;
9884;SDS011;4981;50.966;4.842;2023-12-22T06:42:22;28.20;;;6.17;;
9884;SDS011;4981;50.966;4.842;2023-12-22T06:44:49;27.57;;;5.30;;
9884;SDS011;4981;50.966;4.842;2023-12-22T06:47:16;32.23;;;5.87;;
9884;SDS011;4981;50.966;4.842;2023-12-22T06:49:43;27.53;;;5.30;;
9884;SDS011;4981;50.966;4.842;2023-12-22T06:52:11;28.17;;;6.23;;
9884;SDS011;4981;50.966;4.842;2023-12-22T06:54:38;29.50;;;6.33;;
9884;SDS011;4981;50.966;4.842;2023-12-22T06:57:05;28.23;;;5.73;;
9884;SDS011;4981;50.966;4.842;2023-12-22T06:59:34;21.97;;;5.13;;
9884;SDS011;4981;50.966;4.842;2023-12-22T07:02:01;26.03;;;6.10;;
9884;SDS011;4981;50.966;4.842;2023-12-22T07:07:31;21.27;;;4.93;;
9884;SDS011;4981;50.966;4.842;2023-12-22T07:09:58;25.63;;;5.60;;
9884;SDS011;4981;50.966;4.842;2023-12-22T07:12:25;28.03;;;4.47;;
9884;SDS011;4981;50.966;4.842;2023-12-22T07:14:54;25.23;;;4.83;;
9884;SDS011;4981;50.966;4.842;2023-12-22T07:17:21;20.27;;;4.87;;
9884;SDS011;4981;50.966;4.842;2023-12-22T07:19:48;23.40;;;4.67;;
9884;SDS011;4981;50.966;4.842;2023-12-22T07:22:17;20.50;;;4.43;;
9884;SDS011;4981;50.966;4.842;2023-12-22T07:24:44;19.53;;;4.40;;
9884;SDS011;4981;50.966;4.842;2023-12-22T07:27:12;22.40;;;4.20;;
9884;SDS011;4981;50.966;4.842;2023-12-22T07:29:39;19.97;;;3.83;;
9884;SDS011;4981;50.966;4.842;2023-12-22T07:32:08;16.53;;;3.83;;
9884;SDS011;4981;50.966;4.842;2023-12-22T07:34:36;19.70;;;3.73;;
9884;SDS011;4981;50.966;4.842;2023-12-22T07:37:03;19.23;;;3.47;;
9884;SDS011;4981;50.966;4.842;2023-12-22T07:39:30;25.17;;;4.80;;
9884;SDS011;4981;50.966;4.842;2023-12-22T07:41:59;22.17;;;3.77;;
9884;SDS011;4981;50.966;4.842;2023-12-22T07:44:28;18.03;;;3.13;;
9884;SDS011;4981;50.966;4.842;2023-12-22T07:46:56;21.20;;;4.17;;
9884;SDS011;4981;50.966;4.842;2023-12-22T07:49:26;24.50;;;4.13;;
9884;SDS011;4981;50.966;4.842;2023-12-22T07:51:53;20.37;;;4.57;;
9884;SDS011;4981;50.966;4.842;2023-12-22T07:54:21;28.30;;;5.10;;
9884;SDS011;4981;50.966;4.842;2023-12-22T07:56:48;21.83;;;3.53;;
9884;SDS011;4981;50.966;4.842;2023-12-22T07:59:15;24.03;;;4.33;;
9884;SDS011;4981;50.966;4.842;2023-12-22T08:01:42;20.03;;;3.90;;
9884;SDS011;4981;50.966;4.842;2023-12-22T08:04:09;24.67;;;3.43;;
9884;SDS011;4981;50.966;4.842;2023-12-22T08:06:38;25.57;;;4.17;;
9884;SDS011;4981;50.966;4.842;2023-12-22T08:09:05;19.87;;;3.40;;
9884;SDS011;4981;50.966;4.842;2023-12-22T08:11:33;26.47;;;4.57;;
9884;SDS011;4981;50.966;4.842;2023-12-22T08:14:00;25.03;;;4.43;;
9884;SDS011;4981;50.966;4.842;2023-12-22T08:16:28;19.03;;;3.80;;
9884;SDS011;4981;50.966;4.842;2023-12-22T08:18:57;27.57;;;3.83;;
9884;SDS011;4981;50.966;4.842;2023-12-22T08:21:25;22.80;;;5.27;;
9884;SDS011;4981;50.966;4.842;2023-12-22T08:23:54;22.80;;;4.90;;
9884;SDS011;4981;50.966;4.842;2023-12-22T08:26:21;17.47;;;4.90;;
9884;SDS011;4981;50.966;4.842;2023-12-22T08:28:49;19.97;;;5.70;;
9884;SDS011;4981;50.966;4.842;2023-12-22T08:31:16;24.37;;;5.07;;
9884;SDS011;4981;50.966;4.842;2023-12-22T08:33:43;17.57;;;5.03;;
9884;SDS011;4981;50.966;4.842;2023-12-22T08:36:10;17.83;;;4.90;;
9884;SDS011;4981;50.966;4.842;2023-12-22T08:38:38;16.60;;;5.70;;
9884;SDS011;4981;50.966;4.842;2023-12-22T08:41:07;20.57;;;5.10;;
9884;SDS011;4981;50.966;4.842;2023-12-22T08:43:36;21.90;;;5.10;;
9884;SDS011;4981;50.966;4.842;2023-12-22T08:46:03;13.63;;;3.90;;
9884;SDS011;4981;50.966;4.842;2023-12-22T08:48:33;17.70;;;4.30;;
9884;SDS011;4981;50.966;4.842;2023-12-22T08:51:01;17.43;;;4.87;;
9884;SDS011;4981;50.966;4.842;2023-12-22T08:53:29;0.00;;;0.00;;
9884;SDS011;4981;50.966;4.842;2023-12-22T08:55:58;0.17;;;0.17;;
9884;SDS011;4981;50.966;4.842;2023-12-22T08:58:27;0.00;;;0.00;;
9884;SDS011;4981;50.966;4.842;2023-12-22T09:00:54;0.00;;;0.00;;
9884;SDS011;4981;50.966;4.842;2023-12-22T09:03:22;0.00;;;0.00;;
9884;SDS011;4981;50.966;4.842;2023-12-22T09:05:49;18.33;;;6.90;;
9884;SDS011;4981;50.966;4.842;2023-12-22T09:08:16;15.90;;;8.03;;
9884;SDS011;4981;50.966;4.842;2023-12-22T09:10:43;15.60;;;9.07;;
9884;SDS011;4981;50.966;4.842;2023-12-22T09:13:11;19.47;;;8.87;;
9884;SDS011;4981;50.966;4.842;2023-12-22T09:15:39;18.43;;;10.10;;
9884;SDS011;4981;50.966;4.842;2023-12-22T09:18:07;16.07;;;9.57;;
9884;SDS011;4981;50.966;4.842;2023-12-22T09:20:34;18.00;;;10.63;;
9884;SDS011;4981;50.966;4.842;2023-12-22T09:23:01;13.33;;;8.13;;
9884;SDS011;4981;50.966;4.842;2023-12-22T09:25:31;18.83;;;9.93;;
9884;SDS011;4981;50.966;4.842;2023-12-22T09:27:58;14.50;;;8.40;;
9884;SDS011;4981;50.966;4.842;2023-12-22T09:30:26;13.07;;;8.30;;
9884;SDS011;4981;50.966;4.842;2023-12-22T09:32:54;13.63;;;8.37;;
9884;SDS011;4981;50.966;4.842;2023-12-22T09:35:24;15.20;;;8.03;;
9884;SDS011;4981;50.966;4.842;2023-12-22T09:37:51;13.87;;;8.00;;
9884;SDS011;4981;50.966;4.842;2023-12-22T09:40:19;15.00;;;9.13;;
9884;SDS011;4981;50.966;4.842;2023-12-22T09:42:47;22.17;;;8.33;;
9884;SDS011;4981;50.966;4.842;2023-12-22T09:45:15;19.87;;;7.87;;
9884;SDS011;4981;50.966;4.842;2023-12-22T09:47:44;13.13;;;6.67;;
9884;SDS011;4981;50.966;4.842;2023-12-22T09:50:14;15.40;;;6.93;;
9884;SDS011;4981;50.966;4.842;2023-12-22T09:52:42;15.70;;;6.87;;
9884;SDS011;4981;50.966;4.842;2023-12-22T09:55:11;13.53;;;5.83;;
9884;SDS011;4981;50.966;4.842;2023-12-22T09:57:39;10.93;;;6.40;;
9884;SDS011;4981;50.966;4.842;2023-12-22T10:00:07;15.40;;;7.20;;
9884;SDS011;4981;50.966;4.842;2023-12-22T10:02:36;16.33;;;7.50;;
9884;SDS011;4981;50.966;4.842;2023-12-22T10:05:03;12.17;;;6.90;;
9884;SDS011;4981;50.966;4.842;2023-12-22T10:07:32;14.87;;;7.83;;
9884;SDS011;4981;50.966;4.842;2023-12-22T10:10:00;17.20;;;7.30;;
9884;SDS011;4981;50.966;4.842;2023-12-22T10:12:28;16.80;;;6.87;;
9884;SDS011;4981;50.966;4.842;2023-12-22T10:14:56;13.80;;;6.33;;
9884;SDS011;4981;50.966;4.842;2023-12-22T10:17:26;13.10;;;6.53;;
9884;SDS011;4981;50.966;4.842;2023-12-22T10:19:54;13.67;;;6.37;;
9884;SDS011;4981;50.966;4.842;2023-12-22T10:22:21;12.07;;;4.93;;
9884;SDS011;4981;50.966;4.842;2023-12-22T10:24:50;14.80;;;5.80;;
9884;SDS011;4981;50.966;4.842;2023-12-22T10:27:18;13.53;;;6.77;;
9884;SDS011;4981;50.966;4.842;2023-12-22T10:29:48;11.90;;;5.50;;
9884;SDS011;4981;50.966;4.842;2023-12-22T10:32:16;14.97;;;4.90;;
9884;SDS011;4981;50.966;4.842;2023-12-22T10:34:43;14.43;;;4.53;;
9884;SDS011;4981;50.966;4.842;2023-12-22T10:37:10;11.60;;;4.70;;
9884;SDS011;4981;50.966;4.842;2023-12-22T10:39:38;13.13;;;4.47;;
9884;SDS011;4981;50.966;4.842;2023-12-22T10:42:07;8.27;;;3.90;;
9884;SDS011;4981;50.966;4.842;2023-12-22T10:44:34;10.57;;;3.73;;
9884;SDS011;4981;50.966;4.842;2023-12-22T10:47:02;9.27;;;3.20;;
9884;SDS011;4981;50.966;4.842;2023-12-22T10:49:29;10.93;;;3.00;;
9884;SDS011;4981;50.966;4.842;2023-12-22T10:51:59;7.30;;;2.50;;
9884;SDS011;4981;50.966;4.842;2023-12-22T10:54:26;5.00;;;2.40;;
9884;SDS011;4981;50.966;4.842;2023-12-22T10:56:54;9.40;;;1.87;;
9884;SDS011;4981;50.966;4.842;2023-12-22T10:59:23;8.47;;;2.30;;
9884;SDS011;4981;50.966;4.842;2023-12-22T11:01:53;8.47;;;3.43;;
9884;SDS011;4981;50.966;4.842;2023-12-22T11:04:21;6.53;;;2.23;;
9884;SDS011;4981;50.966;4.842;2023-12-22T11:06:49;7.53;;;1.97;;
9884;SDS011;4981;50.966;4.842;2023-12-22T11:09:20;7.97;;;1.97;;
9884;SDS011;4981;50.966;4.842;2023-12-22T11:11:48;9.17;;;2.27;;
9884;SDS011;4981;50.966;4.842;2023-12-22T11:14:16;7.67;;;1.70;;
9884;SDS011;4981;50.966;4.842;2023-12-22T11:16:45;6.97;;;2.13;;
9884;SDS011;4981;50.966;4.842;2023-12-22T11:19:14;5.97;;;1.30;;
9884;SDS011;4981;50.966;4.842;2023-12-22T11:21:41;6.53;;;1.87;;
9884;SDS011;4981;50.966;4.842;2023-12-22T11:24:09;7.97;;;1.70;;
9884;SDS011;4981;50.966;4.842;2023-12-22T11:26:38;8.03;;;1.43;;
9884;SDS011;4981;50.966;4.842;2023-12-22T11:29:05;8.10;;;1.67;;
9884;SDS011;4981;50.966;4.842;2023-12-22T11:31:34;6.57;;;1.53;;
9884;SDS011;4981;50.966;4.842;2023-12-22T11:34:03;6.17;;;1.57;;
9884;SDS011;4981;50.966;4.842;2023-12-22T11:36:31;8.80;;;1.90;;
9884;SDS011;4981;50.966;4.842;2023-12-22T11:38:59;9.23;;;2.03;;
9884;SDS011;4981;50.966;4.842;2023-12-22T11:41:28;5.97;;;2.00;;
9884;SDS011;4981;50.966;4.842;2023-12-22T11:43:56;6.27;;;1.80;;
9884;SDS011;4981;50.966;4.842;2023-12-22T11:46:25;7.50;;;2.33;;
9884;SDS011;4981;50.966;4.842;2023-12-22T11:48:53;8.00;;;2.47;;
9884;SDS011;4981;50.966;4.842;2023-12-22T11:51:22;6.40;;;2.20;;
9884;SDS011;4981;50.966;4.842;2023-12-22T11:53:51;8.13;;;2.50;;
9884;SDS011;4981;50.966;4.842;2023-12-22T11:56:18;7.87;;;2.03;;
9884;SDS011;4981;50.966;4.842;2023-12-22T11:58:46;8.73;;;1.70;;
9884;SDS011;4981;50.966;4.842;2023-12-22T12:01:16;5.57;;;2.03;;
9884;SDS011;4981;50.966;4.842;2023-12-22T12:03:50;10.17;;;2.23;;
9884;SDS011;4981;50.966;4.842;2023-12-22T12:06:31;5.70;;;1.73;;
9884;SDS011;4981;50.966;4.842;2023-12-22T12:08:59;6.00;;;2.00;;
9884;SDS011;4981;50.966;4.842;2023-12-22T12:14:14;7.47;;;1.53;;
9884;SDS011;4981;50.966;4.842;2023-12-22T12:16:43;6.13;;;1.63;;
9884;SDS011;4981;50.966;4.842;2023-12-22T12:19:11;6.93;;;1.30;;
9884;SDS011;4981;50.966;4.842;2023-12-22T12:21:40;2.83;;;1.03;;
9884;SDS011;4981;50.966;4.842;2023-12-22T12:24:08;4.03;;;1.20;;
9884;SDS011;4981;50.966;4.842;2023-12-22T12:26:35;4.57;;;1.20;;
9884;SDS011;4981;50.966;4.842;2023-12-22T12:29:03;6.27;;;1.50;;
9884;SDS011;4981;50.966;4.842;2023-12-22T12:31:35;5.57;;;1.10;;
9884;SDS011;4981;50.966;4.842;2023-12-22T12:34:03;7.60;;;1.30;;
9884;SDS011;4981;50.966;4.842;2023-12-22T12:36:31;5.60;;;1.13;;
9884;SDS011;4981;50.966;4.842;2023-12-22T12:39:01;8.13;;;1.30;;
9884;SDS011;4981;50.966;4.842;2023-12-22T12:41:32;5.97;;;1.10;;
9884;SDS011;4981;50.966;4.842;2023-12-22T12:44:03;5.57;;;1.00;;
9884;SDS011;4981;50.966;4.842;2023-12-22T12:46:34;5.03;;;1.13;;
9884;SDS011;4981;50.966;4.842;2023-12-22T12:49:04;6.17;;;0.73;;
9884;SDS011;4981;50.966;4.842;2023-12-22T12:51:35;6.73;;;1.23;;
9884;SDS011;4981;50.966;4.842;2023-12-22T12:54:04;8.63;;;1.43;;
9884;SDS011;4981;50.966;4.842;2023-12-22T12:56:35;4.33;;;1.07;;
9884;SDS011;4981;50.966;4.842;2023-12-22T12:59:06;5.50;;;1.33;;
9884;SDS011;4981;50.966;4.842;2023-12-22T13:01:37;7.37;;;1.63;;
9884;SDS011;4981;50.966;4.842;2023-12-22T13:04:05;8.13;;;1.70;;
9884;SDS011;4981;50.966;4.842;2023-12-22T13:06:32;4.13;;;1.13;;
9884;SDS011;4981;50.966;4.842;2023-12-22T13:09:00;9.47;;;1.47;;
9884;SDS011;4981;50.966;4.842;2023-12-22T13:11:29;9.80;;;1.60;;
9884;SDS011;4981;50.966;4.842;2023-12-22T13:13:58;8.27;;;1.40;;
9884;SDS011;4981;50.966;4.842;2023-12-22T13:16:25;6.57;;;1.40;;
9884;SDS011;4981;50.966;4.842;2023-12-22T13:18:55;4.07;;;1.10;;
9884;SDS011;4981;50.966;4.842;2023-12-22T13:21:23;7.37;;;1.57;;
9884;SDS011;4981;50.966;4.842;2023-12-22T13:26:37;5.37;;;1.17;;
9884;SDS011;4981;50.966;4.842;2023-12-22T13:29:04;5.63;;;1.33;;
9884;SDS011;4981;50.966;4.842;2023-12-22T13:31:31;7.37;;;1.47;;
9884;SDS011;4981;50.966;4.842;2023-12-22T13:33:59;6.13;;;1.20;;
9884;SDS011;4981;50.966;4.842;2023-12-22T13:36:26;5.50;;;1.40;;
9884;SDS011;4981;50.966;4.842;2023-12-22T13:38:53;9.87;;;1.57;;
9884;SDS011;4981;50.966;4.842;2023-12-22T13:41:21;4.80;;;1.47;;
9884;SDS011;4981;50.966;4.842;2023-12-22T13:43:50;5.93;;;1.30;;
9884;SDS011;4981;50.966;4.842;2023-12-22T13:46:17;9.97;;;1.40;;
9884;SDS011;4981;50.966;4.842;2023-12-22T13:48:45;4.90;;;1.63;;
9884;SDS011;4981;50.966;4.842;2023-12-22T13:51:12;9.37;;;1.53;;
9884;SDS011;4981;50.966;4.842;2023-12-22T13:53:49;4.47;;;1.73;;
9884;SDS011;4981;50.966;4.842;2023-12-22T13:56:18;5.80;;;1.60;;
9884;SDS011;4981;50.966;4.842;2023-12-22T13:58:45;7.43;;;1.63;;
9884;SDS011;4981;50.966;4.842;2023-12-22T14:01:15;8.67;;;1.50;;
9884;SDS011;4981;50.966;4.842;2023-12-22T14:03:42;7.17;;;1.57;;
9884;SDS011;4981;50.966;4.842;2023-12-22T14:06:11;5.40;;;1.37;;
9884;SDS011;4981;50.966;4.842;2023-12-22T14:08:39;7.40;;;1.50;;
9884;SDS011;4981;50.966;4.842;2023-12-22T14:11:06;6.07;;;1.53;;
9884;SDS011;4981;50.966;4.842;2023-12-22T14:13:34;4.27;;;1.50;;
9884;SDS011;4981;50.966;4.842;2023-12-22T14:16:04;3.43;;;1.13;;
9884;SDS011;4981;50.966;4.842;2023-12-22T14:18:33;8.90;;;1.50;;
9884;SDS011;4981;50.966;4.842;2023-12-22T14:21:00;6.03;;;1.40;;
9884;SDS011;4981;50.966;4.842;2023-12-22T14:23:30;6.90;;;1.43;;
9884;SDS011;4981;50.966;4.842;2023-12-22T14:25:57;7.73;;;1.50;;
9884;SDS011;4981;50.966;4.842;2023-12-22T14:28:24;3.47;;;1.20;;
9884;SDS011;4981;50.966;4.842;2023-12-22T14:30:52;5.60;;;1.10;;
9884;SDS011;4981;50.966;4.842;2023-12-22T14:33:19;3.27;;;1.10;;
9884;SDS011;4981;50.966;4.842;2023-12-22T14:35:48;9.93;;;2.20;;
9884;SDS011;4981;50.966;4.842;2023-12-22T14:38:15;4.57;;;1.23;;
9884;SDS011;4981;50.966;4.842;2023-12-22T14:40:42;7.07;;;1.20;;
9884;SDS011;4981;50.966;4.842;2023-12-22T14:43:12;5.20;;;1.73;;
9884;SDS011;4981;50.966;4.842;2023-12-22T14:45:39;5.27;;;1.47;;
9884;SDS011;4981;50.966;4.842;2023-12-22T14:48:06;2.67;;;1.00;;
9884;SDS011;4981;50.966;4.842;2023-12-22T14:50:33;3.83;;;1.30;;
9884;SDS011;4981;50.966;4.842;2023-12-22T14:53:02;5.63;;;1.10;;
9884;SDS011;4981;50.966;4.842;2023-12-22T14:55:29;10.07;;;1.33;;
9884;SDS011;4981;50.966;4.842;2023-12-22T14:57:57;5.17;;;1.43;;
9884;SDS011;4981;50.966;4.842;2023-12-22T15:00:24;10.10;;;1.83;;
9884;SDS011;4981;50.966;4.842;2023-12-22T15:02:51;9.30;;;1.30;;
9884;SDS011;4981;50.966;4.842;2023-12-22T15:05:18;5.43;;;1.10;;
9884;SDS011;4981;50.966;4.842;2023-12-22T15:07:46;6.80;;;1.30;;
9884;SDS011;4981;50.966;4.842;2023-12-22T15:10:14;5.60;;;1.27;;
9884;SDS011;4981;50.966;4.842;2023-12-22T15:12:41;6.93;;;1.47;;
9884;SDS011;4981;50.966;4.842;2023-12-22T15:15:08;6.37;;;1.37;;
9884;SDS011;4981;50.966;4.842;2023-12-22T15:17:35;6.23;;;1.60;;